createdAt,value
2022-08-02T00:01:50.386Z,20.98
2022-08-02T00:04:20.429Z,20.79
2022-08-02T00:06:48.974Z,20.87
2022-08-02T00:09:17.677Z,20.78
2022-08-02T00:11:50.098Z,20.73
2022-08-02T00:14:18.629Z,20.67
2022-08-02T00:16:47.257Z,20.69
2022-08-02T00:19:15.706Z,20.77
2022-08-02T00:21:46.025Z,20.80
2022-08-02T00:24:28.861Z,20.75
2022-08-02T00:26:58.289Z,20.73
2022-08-02T00:29:26.632Z,20.69
2022-08-02T00:31:55.286Z,20.78
2022-08-02T00:34:29.961Z,20.71
2022-08-02T00:37:01.236Z,20.70
2022-08-02T00:39:34.835Z,20.64
2022-08-02T00:42:04.207Z,20.58
2022-08-02T00:44:33.181Z,20.72
2022-08-02T00:47:01.742Z,20.55
2022-08-02T00:49:30.458Z,20.57
2022-08-02T00:52:00.467Z,20.58
2022-08-02T00:54:29.059Z,20.55
2022-08-02T00:56:57.481Z,20.66
2022-08-02T00:59:26.181Z,20.76
2022-08-02T01:01:58.137Z,20.68
2022-08-02T01:04:31.134Z,20.76
2022-08-02T01:07:04.306Z,20.69
2022-08-02T01:09:41.867Z,20.71
2022-08-02T01:12:11.480Z,20.76
2022-08-02T01:14:40.719Z,20.77
2022-08-02T01:17:11.934Z,20.59
2022-08-02T01:19:45.139Z,20.70
2022-08-02T01:22:59.559Z,20.78
2022-08-02T01:25:29.565Z,20.78
2022-08-02T01:28:16.784Z,20.87
2022-08-02T01:30:46.465Z,20.86
2022-08-02T01:33:18.349Z,20.75
2022-08-02T01:35:51.113Z,20.66
2022-08-02T01:38:23.995Z,20.64
2022-08-02T01:40:54.344Z,20.60
2022-08-02T01:43:26.630Z,20.60
2022-08-02T01:45:56.911Z,20.56
2022-08-02T01:48:28.338Z,20.56
2022-08-02T01:50:57.212Z,20.60
2022-08-02T01:53:27.330Z,20.60
2022-08-02T01:55:57.698Z,20.62
2022-08-02T01:58:30.273Z,20.54
2022-08-02T02:01:00.043Z,20.46
2022-08-02T02:03:30.785Z,20.39
2022-08-02T02:06:03.586Z,20.43
2022-08-02T02:08:38.095Z,20.52
2022-08-02T02:12:05.990Z,20.56
2022-08-02T02:13:59.805Z,20.53
2022-08-02T02:16:29.124Z,20.40
2022-08-02T02:18:58.782Z,20.46
2022-08-02T02:21:27.236Z,20.25
2022-08-02T02:23:55.783Z,20.40
2022-08-02T02:26:29.601Z,20.36
2022-08-02T02:29:03.326Z,20.40
2022-08-02T02:31:34.164Z,20.47
2022-08-02T02:34:04.405Z,20.38
2022-08-02T02:36:34.860Z,20.47
2022-08-02T02:39:04.682Z,20.50
2022-08-02T02:41:42.632Z,20.54
2022-08-02T02:44:14.797Z,20.48
2022-08-02T02:46:43.498Z,20.54
2022-08-02T02:49:12.732Z,20.50
2022-08-02T02:51:41.681Z,20.60
2022-08-02T02:54:30.196Z,20.69
2022-08-02T02:56:59.788Z,20.71
2022-08-02T02:59:29.933Z,20.81
2022-08-02T03:01:59.115Z,20.76
2022-08-02T03:04:35.988Z,20.70
2022-08-02T03:07:18.113Z,20.66
2022-08-02T03:09:54.110Z,20.73
2022-08-02T03:12:30.958Z,20.82
2022-08-02T03:15:02.386Z,20.90
2022-08-02T03:17:42.269Z,20.81
2022-08-02T03:20:12.551Z,20.82
2022-08-02T03:22:41.619Z,20.62
2022-08-02T03:25:10.966Z,20.47
2022-08-02T03:27:40.771Z,20.63
2022-08-02T03:30:12.097Z,20.84
2022-08-02T03:32:41.478Z,20.95
2022-08-02T03:35:11.923Z,21.07
2022-08-02T03:37:40.680Z,21.09
2022-08-02T03:40:10.256Z,21.18
2022-08-02T03:42:40.376Z,21.20
2022-08-02T03:45:12.810Z,21.17
2022-08-02T03:47:42.019Z,21.31
2022-08-02T03:50:13.066Z,21.31
2022-08-02T03:52:43.161Z,21.28
2022-08-02T03:55:12.885Z,21.28
2022-08-02T03:57:42.216Z,21.37
2022-08-02T04:00:13.660Z,21.41
2022-08-02T04:02:42.661Z,21.57
2022-08-02T04:05:12.437Z,21.64
2022-08-02T04:08:33.042Z,21.77
2022-08-02T04:10:29.698Z,21.96
2022-08-02T04:12:57.980Z,21.88
2022-08-02T04:15:27.951Z,21.94
2022-08-02T04:17:58.195Z,22.01
2022-08-02T04:20:30.140Z,21.97
2022-08-02T04:23:01.957Z,22.14
2022-08-02T04:25:35.623Z,22.37
2022-08-02T04:28:17.079Z,22.43
2022-08-02T04:30:49.674Z,22.59
2022-08-02T04:33:18.597Z,22.51
2022-08-02T04:35:47.453Z,22.61
2022-08-02T04:38:16.183Z,22.84
2022-08-02T04:40:52.127Z,22.97
2022-08-02T04:43:21.741Z,22.97
2022-08-02T04:45:54.016Z,22.90
2022-08-02T04:48:23.154Z,23.06
2022-08-02T04:50:51.859Z,23.18
2022-08-02T04:53:20.545Z,23.33
2022-08-02T04:55:49.280Z,23.36
2022-08-02T04:58:39.332Z,23.26
2022-08-02T05:01:09.217Z,23.34
2022-08-02T05:03:38.058Z,23.49
2022-08-02T05:06:19.005Z,23.23
2022-08-02T05:08:52.365Z,23.38
2022-08-02T05:11:25.711Z,23.37
2022-08-02T05:14:05.964Z,23.21
2022-08-02T05:16:36.036Z,23.70
2022-08-02T05:19:04.534Z,23.88
2022-08-02T05:21:33.263Z,23.75
2022-08-02T05:24:01.737Z,23.84
2022-08-02T05:26:30.599Z,23.68
2022-08-02T05:29:00.404Z,23.57
2022-08-02T05:31:29.045Z,23.50
2022-08-02T05:33:59.127Z,23.29
2022-08-02T05:36:27.980Z,23.48
2022-08-02T05:39:05.153Z,23.80
2022-08-02T05:41:34.282Z,23.98
2022-08-02T05:44:03.337Z,24.04
2022-08-02T05:46:32.481Z,24.42
2022-08-02T05:49:04.618Z,24.74
2022-08-02T05:51:37.580Z,24.99
2022-08-02T05:54:12.399Z,25.03
2022-08-02T05:56:46.921Z,25.06
2022-08-02T05:59:19.403Z,25.10
2022-08-02T06:01:50.097Z,25.32
2022-08-02T06:04:31.570Z,25.31
2022-08-02T06:07:03.066Z,25.45
2022-08-02T06:09:32.613Z,25.64
2022-08-02T06:12:02.274Z,25.49
2022-08-02T06:14:33.532Z,25.27
2022-08-02T06:17:03.707Z,25.51
2022-08-02T06:19:47.054Z,25.52
2022-08-02T06:22:37.633Z,25.70
2022-08-02T06:25:11.764Z,26.04
2022-08-02T06:27:56.627Z,26.42
2022-08-02T06:30:25.328Z,26.70
2022-08-02T06:32:54.499Z,26.82
2022-08-02T06:35:26.671Z,26.79
2022-08-02T06:38:00.883Z,26.81
2022-08-02T06:40:32.557Z,26.65
2022-08-02T06:43:08.436Z,26.68
2022-08-02T06:45:38.263Z,27.01
2022-08-02T06:48:07.412Z,27.07
2022-08-02T06:50:38.983Z,27.21
2022-08-02T06:53:07.896Z,27.08
2022-08-02T06:55:43.322Z,27.60
2022-08-02T06:58:14.071Z,28.09
2022-08-02T07:00:43.784Z,27.92
2022-08-02T07:03:12.567Z,27.85
2022-08-02T07:05:45.909Z,28.10
2022-08-02T07:08:14.791Z,28.44
2022-08-02T07:10:43.509Z,28.96
2022-08-02T07:13:12.172Z,29.10
2022-08-02T07:15:45.826Z,29.12
2022-08-02T07:18:18.407Z,29.22
2022-08-02T07:20:48.777Z,29.37
2022-08-02T07:23:17.353Z,29.76
2022-08-02T07:26:03.438Z,30.11
2022-08-02T07:28:34.007Z,30.25
2022-08-02T07:31:02.843Z,30.35
2022-08-02T07:33:37.868Z,30.78
2022-08-02T07:36:16.607Z,30.93
2022-08-02T07:38:47.817Z,30.32
2022-08-02T07:41:16.504Z,30.13
2022-08-02T07:43:45.562Z,30.90
2022-08-02T07:46:14.353Z,30.83
2022-08-02T07:48:42.947Z,31.46
2022-08-02T07:51:17.223Z,31.96
2022-08-02T07:53:49.824Z,31.98
2022-08-02T07:56:19.145Z,31.90
2022-08-02T07:58:47.871Z,31.49
2022-08-02T08:01:16.581Z,31.48
2022-08-02T08:03:45.352Z,31.29
2022-08-02T08:06:15.664Z,31.21
2022-08-02T08:08:45.445Z,31.34
2022-08-02T08:11:14.515Z,32.04
2022-08-02T08:13:43.163Z,31.46
2022-08-02T08:16:11.823Z,30.44
2022-08-02T08:18:40.763Z,30.03
2022-08-02T08:21:10.424Z,29.22
2022-08-02T08:23:40.577Z,29.57
2022-08-02T08:26:11.715Z,31.06
2022-08-02T08:28:46.742Z,30.97
2022-08-02T08:31:15.340Z,30.17
2022-08-02T08:33:44.048Z,30.03
2022-08-02T08:36:12.706Z,29.69
2022-08-02T08:38:42.920Z,28.66
2022-08-02T08:41:12.742Z,29.06
2022-08-02T08:43:41.386Z,29.07
2022-08-02T08:46:12.420Z,29.10
2022-08-02T08:48:43.504Z,29.02
2022-08-02T08:51:13.497Z,29.28
2022-08-02T08:53:44.428Z,30.95
2022-08-02T08:56:16.603Z,33.01
2022-08-02T08:58:46.297Z,34.15
2022-08-02T09:01:15.655Z,34.48
2022-08-02T09:03:44.709Z,33.84
2022-08-02T09:06:13.394Z,32.78
2022-08-02T09:08:43.687Z,31.60
2022-08-02T09:11:14.233Z,30.56
2022-08-02T09:13:50.718Z,31.02
2022-08-02T09:16:28.901Z,32.29
2022-08-02T09:18:57.821Z,31.96
2022-08-02T09:21:35.271Z,31.31
2022-08-02T09:24:17.357Z,31.92
2022-08-02T09:26:46.407Z,33.59
2022-08-02T09:29:16.503Z,34.72
2022-08-02T09:31:49.861Z,35.94
2022-08-02T09:34:20.390Z,36.85
2022-08-02T09:36:54.751Z,37.58
2022-08-02T09:39:26.813Z,36.62
2022-08-02T09:42:10.991Z,34.94
2022-08-02T09:44:40.209Z,33.05
2022-08-02T09:47:16.709Z,32.02
2022-08-02T09:49:52.507Z,32.25
2022-08-02T09:52:37.350Z,32.28
2022-08-02T09:55:14.584Z,32.19
2022-08-02T09:57:44.358Z,33.50
2022-08-02T10:00:37.227Z,34.73
2022-08-02T10:03:21.608Z,33.65
2022-08-02T10:05:56.150Z,32.10
2022-08-02T10:08:32.982Z,30.82
2022-08-02T10:11:04.198Z,30.24
2022-08-02T10:13:33.943Z,29.81
2022-08-02T10:16:03.851Z,29.39
2022-08-02T10:18:41.250Z,29.44
2022-08-02T10:21:13.671Z,29.78
2022-08-02T10:23:44.331Z,30.95
2022-08-02T10:26:19.437Z,33.20
2022-08-02T10:28:52.294Z,35.39
2022-08-02T10:31:23.950Z,36.89
2022-08-02T10:33:54.355Z,37.36
2022-08-02T10:36:27.394Z,38.45
2022-08-02T10:38:58.902Z,39.10
2022-08-02T10:41:45.049Z,38.50
2022-08-02T10:44:27.501Z,37.31
2022-08-02T10:47:15.082Z,36.81
2022-08-02T10:50:07.156Z,38.01
2022-08-02T10:52:36.153Z,37.95
2022-08-02T10:55:13.320Z,36.56
2022-08-02T10:57:48.796Z,35.61
2022-08-02T11:00:28.008Z,34.62
2022-08-02T11:02:57.704Z,33.91
2022-08-02T11:05:42.647Z,32.64
2022-08-02T11:08:20.235Z,32.11
2022-08-02T11:10:49.338Z,32.27
2022-08-02T11:13:19.946Z,34.41
2022-08-02T11:16:01.656Z,35.29
2022-08-02T11:19:06.741Z,36.97
2022-08-02T11:21:37.216Z,38.64
2022-08-02T11:24:27.117Z,39.32
2022-08-02T11:26:56.531Z,39.50
2022-08-02T11:29:38.664Z,38.85
2022-08-02T11:32:08.126Z,37.25
2022-08-02T11:34:38.344Z,36.26
2022-08-02T11:37:08.647Z,36.05
2022-08-02T11:39:38.051Z,35.18
2022-08-02T11:42:06.956Z,35.20
2022-08-02T11:44:43.405Z,36.04
2022-08-02T11:47:12.968Z,35.75
2022-08-02T11:49:43.106Z,36.57
2022-08-02T11:52:12.706Z,37.51
2022-08-02T11:54:42.846Z,38.36
2022-08-02T11:57:19.851Z,37.77
2022-08-02T11:59:52.408Z,37.93
2022-08-02T12:02:22.810Z,37.25
2022-08-02T12:04:57.391Z,37.32
2022-08-02T12:07:30.428Z,38.58
2022-08-02T12:10:04.753Z,39.06
2022-08-02T12:12:33.951Z,39.00
2022-08-02T12:15:04.402Z,36.78
2022-08-02T12:17:50.804Z,34.03
2022-08-02T12:20:20.499Z,32.18
2022-08-02T12:22:49.527Z,32.44
2022-08-02T12:25:34.568Z,33.12
2022-08-02T12:28:18.213Z,34.77
2022-08-02T12:30:53.870Z,35.57
2022-08-02T12:33:22.970Z,35.73
2022-08-02T12:35:52.118Z,34.56
2022-08-02T12:38:20.853Z,34.25
2022-08-02T12:40:49.383Z,34.50
2022-08-02T12:43:19.897Z,34.24
2022-08-02T12:45:50.822Z,34.03
2022-08-02T12:48:37.443Z,35.08
2022-08-02T12:51:55.790Z,34.74
2022-08-02T12:54:17.745Z,34.22
2022-08-02T12:56:47.323Z,34.21
2022-08-02T12:59:16.331Z,34.23
2022-08-02T13:01:46.029Z,33.78
2022-08-02T13:04:18.765Z,32.54
2022-08-02T13:06:47.715Z,31.30
2022-08-02T13:09:17.825Z,30.98
2022-08-02T13:11:47.163Z,30.15
2022-08-02T13:14:16.399Z,30.16
2022-08-02T13:16:46.611Z,30.01
2022-08-02T13:19:17.792Z,30.37
2022-08-02T13:22:01.979Z,30.59
2022-08-02T13:24:38.589Z,30.64
2022-08-02T13:27:10.331Z,30.87
2022-08-02T13:29:39.226Z,31.00
2022-08-02T13:32:08.084Z,30.75
2022-08-02T13:34:37.417Z,30.79
2022-08-02T13:37:07.488Z,30.74
2022-08-02T13:39:36.864Z,30.11
2022-08-02T13:42:06.049Z,30.08
2022-08-02T13:44:35.402Z,30.18
2022-08-02T13:47:05.007Z,30.24
2022-08-02T13:49:51.290Z,30.25
2022-08-02T13:52:22.312Z,29.98
2022-08-02T13:54:52.037Z,29.94
2022-08-02T13:57:21.121Z,29.94
2022-08-02T13:59:58.314Z,29.94
2022-08-02T14:02:29.234Z,30.00
2022-08-02T14:04:58.366Z,29.83
2022-08-02T14:07:28.614Z,30.03
2022-08-02T14:09:57.516Z,29.95
2022-08-02T14:12:27.227Z,30.05
2022-08-02T14:14:56.292Z,30.04
2022-08-02T14:17:25.227Z,29.50
2022-08-02T14:19:53.846Z,29.32
2022-08-02T14:22:23.073Z,29.44
2022-08-02T14:24:57.422Z,29.64
2022-08-02T14:27:26.079Z,29.84
2022-08-02T14:29:55.164Z,29.98
2022-08-02T14:32:31.956Z,30.13
2022-08-02T14:35:01.869Z,30.13
2022-08-02T14:37:32.987Z,30.08
2022-08-02T14:40:03.170Z,29.87
2022-08-02T14:42:32.796Z,29.75
2022-08-02T14:45:02.863Z,29.79
2022-08-02T14:47:34.077Z,29.88
2022-08-02T14:50:03.467Z,29.96
2022-08-02T14:52:33.416Z,29.88
2022-08-02T14:55:05.719Z,29.69
2022-08-02T14:57:34.484Z,29.49
2022-08-02T15:00:03.316Z,29.47
2022-08-02T15:02:32.903Z,29.72
2022-08-02T15:05:01.742Z,29.77
2022-08-02T15:07:32.062Z,29.55
2022-08-02T15:10:00.987Z,29.15
2022-08-02T15:12:31.491Z,28.92
2022-08-02T15:15:00.794Z,28.93
2022-08-02T15:17:29.749Z,28.94
2022-08-02T15:20:02.015Z,28.83
2022-08-02T15:22:37.863Z,28.71
2022-08-02T15:25:06.940Z,28.76
2022-08-02T15:27:46.022Z,28.77
2022-08-02T15:30:14.876Z,28.86
2022-08-02T15:32:53.094Z,29.14
2022-08-02T15:35:22.564Z,29.14
2022-08-02T15:37:51.571Z,29.31
2022-08-02T15:40:20.571Z,29.46
2022-08-02T15:42:50.820Z,29.45
2022-08-02T15:45:20.038Z,29.23
2022-08-02T15:47:50.639Z,29.09
2022-08-02T15:50:19.697Z,28.98
2022-08-02T15:52:49.363Z,28.85
2022-08-02T15:55:18.267Z,28.94
2022-08-02T15:57:47.247Z,28.84
2022-08-02T16:00:18.925Z,28.75
2022-08-02T16:02:48.241Z,28.58
2022-08-02T16:05:18.429Z,28.51
2022-08-02T16:07:47.737Z,28.52
2022-08-02T16:10:17.269Z,28.53
2022-08-02T16:12:46.743Z,28.50
2022-08-02T16:15:17.141Z,28.55
2022-08-02T16:17:49.062Z,28.49
2022-08-02T16:20:24.179Z,28.44
2022-08-02T16:22:53.270Z,28.44
2022-08-02T16:25:23.065Z,28.42
2022-08-02T16:28:05.978Z,28.37
2022-08-02T16:30:37.873Z,28.30
2022-08-02T16:33:07.019Z,28.30
2022-08-02T16:35:36.223Z,28.32
2022-08-02T16:38:08.129Z,28.29
2022-08-02T16:40:36.994Z,28.24
2022-08-02T16:43:09.172Z,28.15
2022-08-02T16:45:39.761Z,28.08
2022-08-02T16:48:13.645Z,28.02
2022-08-02T16:50:46.351Z,27.90
2022-08-02T16:53:36.591Z,27.82
2022-08-02T16:56:06.054Z,27.70
2022-08-02T16:58:35.105Z,27.66
2022-08-02T17:01:15.542Z,27.55
2022-08-02T17:03:56.918Z,27.47
2022-08-02T17:06:27.764Z,27.42
2022-08-02T17:08:58.436Z,27.37
2022-08-02T17:11:31.076Z,27.25
2022-08-02T17:14:00.088Z,27.17
2022-08-02T17:16:30.803Z,27.11
2022-08-02T17:19:00.510Z,26.99
2022-08-02T17:21:29.790Z,26.87
2022-08-02T17:24:05.358Z,26.74
2022-08-02T17:26:38.406Z,26.60
2022-08-02T17:29:15.185Z,26.50
2022-08-02T17:32:05.130Z,26.40
2022-08-02T17:34:38.098Z,26.34
2022-08-02T17:37:08.213Z,26.28
2022-08-02T17:39:44.056Z,26.28
2022-08-02T17:42:23.228Z,26.18
2022-08-02T17:44:53.277Z,26.11
2022-08-02T17:47:30.948Z,26.03
2022-08-02T17:50:00.686Z,25.93
2022-08-02T17:52:50.635Z,25.87
2022-08-02T17:55:22.005Z,25.81
2022-08-02T17:57:55.528Z,25.73
2022-08-02T18:00:27.566Z,25.73
2022-08-02T18:02:57.615Z,25.76
2022-08-02T18:05:39.701Z,25.76
2022-08-02T18:08:18.346Z,25.74
2022-08-02T18:10:51.535Z,25.72
2022-08-02T18:13:21.213Z,25.73
2022-08-02T18:15:57.364Z,25.66
2022-08-02T18:18:30.456Z,25.65
2022-08-02T18:21:15.751Z,25.71
2022-08-02T18:23:58.822Z,25.73
2022-08-02T18:26:28.834Z,25.70
2022-08-02T18:28:57.606Z,25.68
2022-08-02T18:31:27.280Z,25.66
2022-08-02T18:34:02.328Z,25.64
2022-08-02T18:36:32.713Z,25.56
2022-08-02T18:39:08.254Z,25.49
2022-08-02T18:41:37.953Z,25.42
2022-08-02T18:44:07.412Z,25.44
2022-08-02T18:46:36.186Z,25.39
2022-08-02T18:49:13.463Z,25.36
2022-08-02T18:51:44.385Z,25.32
2022-08-02T18:54:13.528Z,25.29
2022-08-02T18:56:47.168Z,25.26
2022-08-02T18:59:16.815Z,25.24
2022-08-02T19:01:50.918Z,25.21
2022-08-02T19:04:27.853Z,25.21
2022-08-02T19:07:06.982Z,25.24
2022-08-02T19:09:39.821Z,25.30
2022-08-02T19:12:11.531Z,25.34
2022-08-02T19:14:40.629Z,25.42
2022-08-02T19:17:16.075Z,25.48
2022-08-02T19:20:00.509Z,25.49
2022-08-02T19:22:33.041Z,25.45
2022-08-02T19:25:02.361Z,25.49
2022-08-02T19:27:34.491Z,25.56
2022-08-02T19:30:04.031Z,25.53
2022-08-02T19:32:42.790Z,25.53
2022-08-02T19:35:29.936Z,25.52
2022-08-02T19:38:07.595Z,25.47
2022-08-02T19:40:38.020Z,25.38
2022-08-02T19:44:26.075Z,25.34
2022-08-02T19:45:57.094Z,25.32
2022-08-02T19:48:27.282Z,25.29
2022-08-02T19:51:01.108Z,25.26
2022-08-02T19:53:48.620Z,25.20
2022-08-02T19:56:25.173Z,25.18
2022-08-02T19:58:57.024Z,25.18
2022-08-02T20:01:37.016Z,25.26
2022-08-02T20:04:13.386Z,25.38
2022-08-02T20:06:47.654Z,25.52
2022-08-02T20:09:21.335Z,25.64
2022-08-02T20:11:54.578Z,25.74
2022-08-02T20:14:26.867Z,25.78
2022-08-02T20:16:57.288Z,25.82
2022-08-02T20:19:29.551Z,25.83
2022-08-02T20:22:00.818Z,25.82
2022-08-02T20:24:30.531Z,25.88
2022-08-02T20:26:59.745Z,25.90
2022-08-02T20:29:43.257Z,25.94
2022-08-02T20:32:23.416Z,25.89
2022-08-02T20:34:53.661Z,25.83
2022-08-02T20:38:00.674Z,25.76
2022-08-02T20:40:16.521Z,25.68
2022-08-02T20:42:47.517Z,25.62
2022-08-02T20:45:17.085Z,25.56
2022-08-02T20:47:50.710Z,25.48
2022-08-02T20:50:37.193Z,25.37
2022-08-02T20:53:08.200Z,25.25
2022-08-02T20:55:53.875Z,25.15
2022-08-02T20:58:26.885Z,25.10
2022-08-02T21:00:59.678Z,25.09
2022-08-02T21:03:39.121Z,25.08
2022-08-02T21:06:17.659Z,25.05
2022-08-02T21:08:51.691Z,25.02
2022-08-02T21:11:20.695Z,25.03
2022-08-02T21:14:06.353Z,25.03
2022-08-02T21:16:37.752Z,24.97
2022-08-02T21:19:09.654Z,24.98
2022-08-02T21:21:39.387Z,24.96
2022-08-02T21:24:12.363Z,24.96
2022-08-02T21:26:41.207Z,24.93
2022-08-02T21:29:13.554Z,25.00
2022-08-02T21:31:43.463Z,25.02
2022-08-02T21:34:26.855Z,24.98
2022-08-02T21:36:56.155Z,25.04
2022-08-02T21:39:26.485Z,25.04
2022-08-02T21:41:55.506Z,25.05
2022-08-02T21:44:24.417Z,25.06
2022-08-02T21:46:54.119Z,25.11
2022-08-02T21:49:27.418Z,25.11
2022-08-02T21:52:10.289Z,25.08
2022-08-02T21:54:41.046Z,25.04
2022-08-02T21:57:15.756Z,25.02
2022-08-02T21:59:46.268Z,24.95
2022-08-02T22:02:15.547Z,24.85
2022-08-02T22:04:47.888Z,24.79
2022-08-02T22:07:23.881Z,24.81
2022-08-02T22:09:55.438Z,24.80
2022-08-02T22:12:26.442Z,24.73
2022-08-02T22:14:56.499Z,24.68
2022-08-02T22:17:51.453Z,24.62
2022-08-02T22:20:20.123Z,24.57
2022-08-02T22:22:50.511Z,24.52
2022-08-02T22:25:31.496Z,24.42
2022-08-02T22:28:36.379Z,24.43
2022-08-02T22:30:56.837Z,24.44
2022-08-02T22:33:59.852Z,24.39
2022-08-02T22:36:29.690Z,24.37
2022-08-02T22:38:58.533Z,24.35
2022-08-02T22:42:02.205Z,24.35
2022-08-02T22:44:18.793Z,24.29
2022-08-02T22:46:50.397Z,24.20
2022-08-02T22:49:38.025Z,24.16
2022-08-02T22:52:10.579Z,24.15
2022-08-02T22:54:39.459Z,24.07
2022-08-02T22:57:11.069Z,24.10
2022-08-02T22:59:41.269Z,24.01
2022-08-02T23:02:10.377Z,24.08
2022-08-02T23:04:39.291Z,24.10
2022-08-02T23:07:07.944Z,24.09
2022-08-02T23:09:36.497Z,24.09
2022-08-02T23:12:05.567Z,24.06
2022-08-02T23:14:35.793Z,24.06
2022-08-02T23:17:21.463Z,24.05
2022-08-02T23:19:52.883Z,23.98
2022-08-02T23:22:29.219Z,23.80
2022-08-02T23:25:01.494Z,23.79
2022-08-02T23:27:32.486Z,23.79
2022-08-02T23:30:02.897Z,23.78
2022-08-02T23:32:33.232Z,23.77
2022-08-02T23:35:01.782Z,23.77
2022-08-02T23:37:57.991Z,23.78
2022-08-02T23:40:39.006Z,23.79
2022-08-02T23:43:14.033Z,23.80
2022-08-02T23:45:46.695Z,23.84
2022-08-02T23:48:15.408Z,23.83
2022-08-02T23:50:44.037Z,23.84
2022-08-02T23:53:12.722Z,23.84
2022-08-02T23:55:41.315Z,23.88
2022-08-02T23:58:09.943Z,23.91
